Time;durP1;ratioP1;P1;durP2;ratioP2;P2;SDS_P1;SDS_P2;PMS_P1;PMS_P2;Temp;Humidity;BMP_temperature;BMP_pressure;BME280_temperature;BME280_humidity;BME280_pressure;Samples;Min_cycle;Max_cycle;Signal;HPM_P1;HPM_P2
2023/04/14 00:02:03;;;;;;;1.38;0.60;;;;;;;;;;6216980;28;20250;-74
2023/04/14 00:05:07;;;;;;;0.70;0.38;;;;;;;;;;6219493;28;20121;-74
2023/04/14 00:08:09;;;;;;;2.20;0.60;;;;;;;;;;6219469;28;20054;-74
2023/04/14 00:11:11;;;;;;;4.60;0.70;;;;;;;;;;6216801;28;20100;-74
2023/04/14 00:14:12;;;;;;;1.30;0.70;;;;;;;;;;6218149;28;20046;-74
2023/04/14 00:17:14;;;;;;;0.80;0.50;;;;;;;;;;6219672;28;20376;-74
2023/04/14 00:20:17;;;;;;;2.35;0.70;;;;;;;;;;6219272;28;20117;-74
2023/04/14 00:23:19;;;;;;;1.83;0.45;;;;;;;;;;6218700;28;20054;-74
2023/04/14 00:26:20;;;;;;;1.30;0.60;;;;;;;;;;6219333;28;20065;-74
2023/04/14 00:29:22;;;;;;;1.30;0.70;;;;;;;;;;6217377;28;20104;-75
2023/04/14 00:32:24;;;;;;;1.05;0.60;;;;;;;;;;6212811;28;20108;-75
2023/04/14 00:35:27;;;;;;;0.43;0.35;;;;;;;;;;6217217;28;20088;-75
2023/04/14 00:38:28;;;;;;;1.40;0.70;;;;;;;;;;6212236;28;20093;-74
2023/04/14 00:41:33;;;;;;;0.65;0.50;;;;;;;;;;6216856;28;20081;-74
2023/04/14 00:44:34;;;;;;;1.77;0.70;;;;;;;;;;6214177;28;20060;-74
2023/04/14 00:47:36;;;;;;;2.78;0.70;;;;;;;;;;6219509;28;20132;-75
2023/04/14 00:50:39;;;;;;;1.35;0.63;;;;;;;;;;6215052;28;20063;-75
2023/04/14 00:53:41;;;;;;;3.00;0.60;;;;;;;;;;6214143;28;20057;-75
2023/04/14 00:56:43;;;;;;;0.85;0.40;;;;;;;;;;6217007;28;20239;-74
2023/04/14 00:59:45;;;;;;;1.42;0.47;;;;;;;;;;6216998;28;20061;-74
2023/04/14 01:02:47;;;;;;;2.35;0.60;;;;;;;;;;6217556;28;20108;-74
2023/04/14 01:05:50;;;;;;;2.75;0.70;;;;;;;;;;6215692;28;20053;-75
2023/04/14 01:08:52;;;;;;;0.95;0.43;;;;;;;;;;6219148;28;20058;-75
2023/04/14 01:12:01;;;;;;;1.90;0.80;;;;;;;;;;6217597;28;20049;-75
2023/04/14 01:15:11;;;;;;;2.25;0.77;;;;;;;;;;6219212;28;20360;-74
2023/04/14 01:18:18;;;;;;;2.38;0.98;;;;;;;;;;6216191;28;20069;-75
2023/04/14 01:21:23;;;;;;;0.88;0.60;;;;;;;;;;6216770;28;20049;-75
2023/04/14 01:24:41;;;;;;;3.17;0.90;;;;;;;;;;6219849;28;20405;-75
2023/04/14 01:27:52;;;;;;;2.08;0.75;;;;;;;;;;6216463;28;20790;-75
2023/04/14 01:31:06;;;;;;;0.80;0.52;;;;;;;;;;6214072;28;20103;-74
2023/04/14 01:34:14;;;;;;;1.33;0.70;;;;;;;;;;6220774;28;20103;-74
2023/04/14 01:37:17;;;;;;;0.70;0.60;;;;;;;;;;6216134;28;20060;-75
2023/04/14 01:40:20;;;;;;;1.60;0.73;;;;;;;;;;6213840;28;20100;-75
2023/04/14 01:43:25;;;;;;;1.85;0.75;;;;;;;;;;6218044;28;20115;-74
2023/04/14 01:46:27;;;;;;;1.13;0.60;;;;;;;;;;6212474;28;20726;-75
2023/04/14 01:49:32;;;;;;;0.60;0.50;;;;;;;;;;6213082;28;20096;-75
2023/04/14 01:52:34;;;;;;;0.88;0.50;;;;;;;;;;6213360;28;20058;-74
2023/04/14 01:55:37;;;;;;;1.58;0.60;;;;;;;;;;6214023;28;20078;-75
2023/04/14 01:58:39;;;;;;;1.38;0.77;;;;;;;;;;6218128;28;20104;-75
2023/04/14 02:01:42;;;;;;;1.70;0.80;;;;;;;;;;6218538;28;20054;-75
2023/04/14 02:04:46;;;;;;;1.65;0.70;;;;;;;;;;6214277;28;21620;-75
2023/04/14 02:07:50;;;;;;;2.10;0.68;;;;;;;;;;6217126;28;20050;-76
2023/04/14 02:10:53;;;;;;;1.77;0.80;;;;;;;;;;6214704;28;20556;-79
2023/04/14 02:13:54;;;;;;;1.35;0.80;;;;;;;;;;6216626;28;20225;-76
2023/04/14 02:16:57;;;;;;;3.65;0.73;;;;;;;;;;6221199;28;20066;-74
2023/04/14 02:20:00;;;;;;;3.50;0.90;;;;;;;;;;6221731;28;20053;-75
2023/04/14 02:23:02;;;;;;;1.20;0.70;;;;;;;;;;6218285;28;20065;-75
2023/04/14 02:26:08;;;;;;;1.55;0.80;;;;;;;;;;6220150;28;20058;-75
2023/04/14 02:29:12;;;;;;;2.05;0.80;;;;;;;;;;6220633;28;20100;-75
2023/04/14 02:32:20;;;;;;;1.80;1.00;;;;;;;;;;6221804;28;20096;-76
2023/04/14 02:35:26;;;;;;;1.80;0.90;;;;;;;;;;6221269;28;20459;-75
2023/04/14 02:38:33;;;;;;;3.22;1.00;;;;;;;;;;6223797;28;20238;-75
2023/04/14 02:41:36;;;;;;;1.95;1.30;;;;;;;;;;6219774;28;20084;-75
2023/04/14 02:44:43;;;;;;;1.42;0.98;;;;;;;;;;6223804;28;20050;-75
2023/04/14 02:47:47;;;;;;;2.00;1.30;;;;;;;;;;6225514;28;20043;-75
2023/04/14 02:50:52;;;;;;;2.47;1.63;;;;;;;;;;6221508;28;20101;-75
2023/04/14 02:53:54;;;;;;;2.67;1.60;;;;;;;;;;6219982;28;20058;-75
2023/04/14 02:56:57;;;;;;;3.38;1.98;;;;;;;;;;6224415;28;20098;-76
2023/04/14 02:59:59;;;;;;;3.33;1.90;;;;;;;;;;6220607;28;20072;-75
2023/04/14 03:03:01;;;;;;;2.95;1.90;;;;;;;;;;6216289;28;20459;-76
2023/04/14 03:06:05;;;;;;;2.35;1.73;;;;;;;;;;6219618;28;20058;-75
2023/04/14 03:09:07;;;;;;;2.30;1.55;;;;;;;;;;6217199;28;20396;-75
2023/04/14 03:12:11;;;;;;;3.45;1.92;;;;;;;;;;6222498;28;20054;-75
2023/04/14 03:15:13;;;;;;;;;;;;;;;;;;6218610;28;20115;-75
2023/04/14 03:18:14;;;;;;;2.25;1.60;;;;;;;;;;6219462;28;19925;-75
2023/04/14 03:21:19;;;;;;;2.53;1.70;;;;;;;;;;6218343;28;20230;-75
2023/04/14 03:24:23;;;;;;;3.28;1.63;;;;;;;;;;6216786;28;20058;-76
2023/04/14 03:27:26;;;;;;;4.18;1.20;;;;;;;;;;6216985;28;20395;-75
2023/04/14 03:30:29;;;;;;;2.67;1.20;;;;;;;;;;6217006;28;20119;-75
2023/04/14 03:33:32;;;;;;;2.72;1.30;;;;;;;;;;6219828;28;20473;-75
2023/04/14 03:36:36;;;;;;;2.72;1.60;;;;;;;;;;6218988;28;20228;-75
2023/04/14 03:39:39;;;;;;;1.98;1.30;;;;;;;;;;6216453;28;20054;-75
2023/04/14 03:42:43;;;;;;;2.38;1.20;;;;;;;;;;6218682;28;20104;-75
2023/04/14 03:45:46;;;;;;;2.75;1.42;;;;;;;;;;6217777;28;20089;-75
2023/04/14 03:48:49;;;;;;;1.90;1.10;;;;;;;;;;6214661;28;20058;-75
2023/04/14 03:51:52;;;;;;;2.42;1.25;;;;;;;;;;6217275;28;20058;-76
2023/04/14 03:54:57;;;;;;;3.05;1.20;;;;;;;;;;6217106;28;20065;-75
2023/04/14 03:57:59;;;;;;;2.85;1.17;;;;;;;;;;6217421;28;20045;-75
2023/04/14 04:01:02;;;;;;;2.17;1.10;;;;;;;;;;6217719;28;20112;-75
2023/04/14 04:04:05;;;;;;;2.70;1.23;;;;;;;;;;6217232;28;20049;-75
2023/04/14 04:07:09;;;;;;;1.73;1.20;;;;;;;;;;6216671;28;20243;-75
2023/04/14 04:10:12;;;;;;;2.70;1.75;;;;;;;;;;6218229;28;20052;-74
2023/04/14 04:13:16;;;;;;;5.80;1.55;;;;;;;;;;6215444;28;20049;-75
2023/04/14 04:16:18;;;;;;;4.03;1.33;;;;;;;;;;6216733;28;20066;-75
2023/04/14 04:19:22;;;;;;;3.50;1.27;;;;;;;;;;6214172;28;20214;-75
2023/04/14 04:22:26;;;;;;;1.83;1.20;;;;;;;;;;6215894;28;20368;-75
2023/04/14 04:25:28;;;;;;;1.98;1.33;;;;;;;;;;6216749;28;20065;-75
2023/04/14 04:28:29;;;;;;;3.70;1.65;;;;;;;;;;6218649;28;20104;-75
2023/04/14 04:31:32;;;;;;;3.08;1.40;;;;;;;;;;6216438;28;20317;-75
2023/04/14 04:34:34;;;;;;;4.05;1.20;;;;;;;;;;6215526;28;20121;-75
2023/04/14 04:37:38;;;;;;;2.05;1.30;;;;;;;;;;6216250;28;20062;-75
2023/04/14 04:40:39;;;;;;;2.13;1.40;;;;;;;;;;6216282;28;20046;-75
2023/04/14 04:43:41;;;;;;;2.67;1.23;;;;;;;;;;6218100;28;20046;-75
2023/04/14 04:46:48;;;;;;;2.42;1.30;;;;;;;;;;6215518;28;20061;-75
2023/04/14 04:49:50;;;;;;;2.88;1.50;;;;;;;;;;6216739;28;20054;-75
2023/04/14 04:52:53;;;;;;;4.05;1.60;;;;;;;;;;6216793;28;20053;-74
2023/04/14 04:55:55;;;;;;;3.97;1.92;;;;;;;;;;6215499;28;20054;-75
2023/04/14 04:58:57;;;;;;;2.83;1.58;;;;;;;;;;6213602;28;20050;-75
2023/04/14 05:01:59;;;;;;;2.33;1.38;;;;;;;;;;6217148;28;20112;-74
2023/04/14 05:05:01;;;;;;;2.92;1.63;;;;;;;;;;6216700;28;20061;-78
2023/04/14 05:08:05;;;;;;;2.05;1.30;;;;;;;;;;6217127;28;20145;-75
2023/04/14 05:11:08;;;;;;;2.47;1.52;;;;;;;;;;6212644;28;20108;-76
2023/04/14 05:14:09;;;;;;;2.67;1.60;;;;;;;;;;6214993;28;20342;-75
2023/04/14 05:17:11;;;;;;;2.65;1.60;;;;;;;;;;6213092;28;20874;-74
2023/04/14 05:20:13;;;;;;;3.45;1.88;;;;;;;;;;6216254;28;20103;-74
2023/04/14 05:23:16;;;;;;;2.20;1.52;;;;;;;;;;6217146;28;20057;-75
2023/04/14 05:26:17;;;;;;;6.78;1.63;;;;;;;;;;6215666;28;20062;-75
2023/04/14 05:29:19;;;;;;;2.67;1.98;;;;;;;;;;6214842;28;20353;-74
2023/04/14 05:32:21;;;;;;;2.47;1.55;;;;;;;;;;6214524;28;21181;-74
2023/04/14 05:35:24;;;;;;;3.13;1.75;;;;;;;;;;6217179;28;20377;-75
2023/04/14 05:38:27;;;;;;;3.92;1.65;;;;;;;;;;6216764;28;20050;-75
2023/04/14 05:41:28;;;;;;;2.63;1.70;;;;;;;;;;6217138;28;20799;-76
2023/04/14 05:44:30;;;;;;;2.20;1.70;;;;;;;;;;6212864;28;20124;-76
2023/04/14 05:47:31;;;;;;;6.55;1.90;;;;;;;;;;6217231;28;20058;-76
2023/04/14 05:50:33;;;;;;;3.00;1.77;;;;;;;;;;6216339;28;20053;-75
2023/04/14 05:53:36;;;;;;;3.47;1.73;;;;;;;;;;6218563;28;20056;-75
2023/04/14 05:56:38;;;;;;;6.75;2.45;;;;;;;;;;6220730;28;20046;-76
2023/04/14 05:59:39;;;;;;;4.57;2.50;;;;;;;;;;6217437;28;20057;-76
2023/04/14 06:02:43;;;;;;;8.32;2.40;;;;;;;;;;6220011;28;20046;-76
2023/04/14 06:05:46;;;;;;;4.50;2.67;;;;;;;;;;6215969;28;20062;-75
2023/04/14 06:08:49;;;;;;;3.58;2.78;;;;;;;;;;6211544;28;20357;-75
2023/04/14 06:11:51;;;;;;;6.00;2.75;;;;;;;;;;6218620;28;20057;-75
2023/04/14 06:14:53;;;;;;;5.18;3.05;;;;;;;;;;6216389;28;20061;-76
2023/04/14 06:17:54;;;;;;;4.75;2.85;;;;;;;;;;6214931;28;20058;-75
2023/04/14 06:20:56;;;;;;;6.78;2.83;;;;;;;;;;6214954;28;20052;-75
2023/04/14 06:23:59;;;;;;;5.85;2.75;;;;;;;;;;6218834;28;20108;-75
2023/04/14 06:27:02;;;;;;;7.65;3.03;;;;;;;;;;6217098;28;20053;-75
2023/04/14 06:30:05;;;;;;;4.38;2.72;;;;;;;;;;6215995;28;20361;-75
2023/04/14 06:33:07;;;;;;;4.35;2.53;;;;;;;;;;6216999;28;20049;-75
2023/04/14 06:36:09;;;;;;;4.40;2.72;;;;;;;;;;6219184;28;20060;-75
2023/04/14 06:39:12;;;;;;;4.28;2.65;;;;;;;;;;6218133;28;20198;-75
2023/04/14 06:42:14;;;;;;;8.40;3.25;;;;;;;;;;6217673;28;20062;-76
2023/04/14 06:45:16;;;;;;;6.43;3.10;;;;;;;;;;6218419;28;20054;-75
2023/04/14 06:48:17;;;;;;;5.13;2.70;;;;;;;;;;6217367;28;20089;-75
2023/04/14 06:51:19;;;;;;;6.38;2.85;;;;;;;;;;6217565;28;20277;-75
2023/04/14 06:54:22;;;;;;;3.90;2.70;;;;;;;;;;6218327;28;20061;-75
2023/04/14 06:57:24;;;;;;;5.43;2.90;;;;;;;;;;6217040;28;20269;-76
2023/04/14 07:00:26;;;;;;;5.55;2.47;;;;;;;;;;6217599;28;20058;-76
2023/04/14 07:03:29;;;;;;;4.63;2.60;;;;;;;;;;6219744;28;20289;-75
2023/04/14 07:06:31;;;;;;;5.03;2.92;;;;;;;;;;6218797;28;20373;-76
2023/04/14 07:09:34;;;;;;;6.72;3.33;;;;;;;;;;6219959;28;20081;-76
2023/04/14 07:12:36;;;;;;;3.83;2.40;;;;;;;;;;6216506;28;20234;-75
2023/04/14 07:15:37;;;;;;;5.97;3.70;;;;;;;;;;6217881;28;20485;-76
2023/04/14 07:18:39;;;;;;;5.63;2.97;;;;;;;;;;6219383;28;20050;-75
2023/04/14 07:21:41;;;;;;;5.80;3.03;;;;;;;;;;6217536;28;20246;-76
2023/04/14 07:24:44;;;;;;;6.82;3.20;;;;;;;;;;6217355;28;20069;-75
2023/04/14 07:27:45;;;;;;;5.77;2.53;;;;;;;;;;6216598;28;20049;-75
2023/04/14 07:30:47;;;;;;;7.80;2.88;;;;;;;;;;6220463;28;20343;-76
2023/04/14 07:33:49;;;;;;;7.10;2.78;;;;;;;;;;6220233;28;20058;-75
2023/04/14 07:36:50;;;;;;;5.57;3.03;;;;;;;;;;6221279;28;20054;-75
2023/04/14 07:39:54;;;;;;;5.97;3.17;;;;;;;;;;6223513;28;20054;-76
2023/04/14 07:42:56;;;;;;;4.53;3.00;;;;;;;;;;6222799;28;20335;-76
2023/04/14 07:45:58;;;;;;;6.47;3.13;;;;;;;;;;6221102;28;20273;-76
2023/04/14 07:48:59;;;;;;;7.15;3.20;;;;;;;;;;6220487;28;20109;-75
2023/04/14 07:52:01;;;;;;;5.03;2.70;;;;;;;;;;6219569;28;20079;-77
2023/04/14 07:55:05;;;;;;;5.32;3.00;;;;;;;;;;6217355;28;20129;-76
2023/04/14 07:58:06;;;;;;;6.30;3.00;;;;;;;;;;6217244;28;20064;-76
2023/04/14 08:01:08;;;;;;;5.32;3.13;;;;;;;;;;6217464;28;20368;-76
2023/04/14 08:04:10;;;;;;;3.70;2.55;;;;;;;;;;6222074;28;20189;-76
2023/04/14 08:07:11;;;;;;;6.80;3.22;;;;;;;;;;6218238;28;20045;-76
2023/04/14 08:10:14;;;;;;;6.05;2.00;;;;;;;;;;6218429;28;20253;-76
2023/04/14 08:13:16;;;;;;;3.83;2.40;;;;;;;;;;6216318;28;20053;-76
2023/04/14 08:16:18;;;;;;;2.55;1.80;;;;;;;;;;6215595;28;20050;-76
2023/04/14 08:19:19;;;;;;;3.25;1.70;;;;;;;;;;6217817;28;20065;-76
2023/04/14 08:22:21;;;;;;;4.35;1.70;;;;;;;;;;6220010;28;20329;-76
2023/04/14 08:25:24;;;;;;;3.80;1.38;;;;;;;;;;6219317;28;20087;-76
2023/04/14 08:28:27;;;;;;;3.55;0.70;;;;;;;;;;6218901;28;20132;-76
2023/04/14 08:31:29;;;;;;;4.05;0.68;;;;;;;;;;6218049;28;20061;-76
2023/04/14 08:34:31;;;;;;;3.33;0.50;;;;;;;;;;6219332;28;20057;-76
2023/04/14 08:37:32;;;;;;;1.63;0.70;;;;;;;;;;6220981;28;20057;-77
2023/04/14 08:40:39;;;;;;;2.25;0.50;;;;;;;;;;6220496;28;20096;-77
2023/04/14 08:43:40;;;;;;;2.92;0.65;;;;;;;;;;6219585;28;20337;-77
2023/04/14 08:46:43;;;;;;;0.75;0.30;;;;;;;;;;6215714;28;20093;-77
2023/04/14 08:49:46;;;;;;;1.27;0.77;;;;;;;;;;6218237;28;20101;-77
2023/04/14 08:52:49;;;;;;;0.55;0.32;;;;;;;;;;6214049;28;20058;-76
2023/04/14 08:55:52;;;;;;;1.00;0.50;;;;;;;;;;6214999;28;20365;-77
2023/04/14 08:58:55;;;;;;;4.13;0.57;;;;;;;;;;6217402;28;20121;-77
2023/04/14 09:01:58;;;;;;;1.27;0.60;;;;;;;;;;6217141;28;20050;-77
2023/04/14 09:05:00;;;;;;;1.48;0.68;;;;;;;;;;6217528;28;20080;-78
2023/04/14 09:08:02;;;;;;;2.25;0.50;;;;;;;;;;6218447;28;20117;-77
2023/04/14 09:11:05;;;;;;;0.43;0.30;;;;;;;;;;6215554;28;20066;-77
2023/04/14 09:14:08;;;;;;;1.52;0.50;;;;;;;;;;6215189;28;20050;-77
2023/04/14 09:17:10;;;;;;;1.50;0.40;;;;;;;;;;6217052;28;20062;-76
2023/04/14 09:20:13;;;;;;;1.05;0.50;;;;;;;;;;6218912;28;20054;-76
2023/04/14 09:23:15;;;;;;;1.75;0.30;;;;;;;;;;6215201;28;20057;-76
2023/04/14 09:26:18;;;;;;;1.67;0.40;;;;;;;;;;6214769;28;20045;-76
2023/04/14 09:29:20;;;;;;;2.22;0.40;;;;;;;;;;6215169;28;20069;-76
2023/04/14 09:32:22;;;;;;;2.10;0.95;;;;;;;;;;6217059;28;20054;-76
2023/04/14 09:35:24;;;;;;;0.80;0.50;;;;;;;;;;6212286;28;20100;-76
2023/04/14 09:38:34;;;;;;;1.52;0.40;;;;;;;;;;6217169;28;20065;-75
2023/04/14 09:41:47;;;;;;;3.70;0.40;;;;;;;;;;6218226;28;20265;-76
2023/04/14 09:44:53;;;;;;;0.50;0.30;;;;;;;;;;6214323;28;20100;-76
2023/04/14 09:48:06;;;;;;;2.15;0.50;;;;;;;;;;6217773;28;20469;-76
2023/04/14 09:51:08;;;;;;;2.13;0.68;;;;;;;;;;6215693;28;20061;-76
2023/04/14 09:54:10;;;;;;;0.82;0.30;;;;;;;;;;6214778;28;20133;-76
2023/04/14 09:57:25;;;;;;;1.88;0.40;;;;;;;;;;6221841;28;20066;-76
2023/04/14 10:00:26;;;;;;;1.25;0.30;;;;;;;;;;6226042;28;20049;-79
2023/04/14 10:03:39;;;;;;;0.98;0.35;;;;;;;;;;6226375;28;20092;-76
2023/04/14 10:06:41;;;;;;;2.37;0.50;;;;;;;;;;6220971;28;20045;-76
2023/04/14 10:09:42;;;;;;;1.08;0.50;;;;;;;;;;6220394;28;20046;-77
2023/04/14 10:12:46;;;;;;;27.42;19.20;;;;;;;;;;6223533;28;20066;-77
2023/04/14 10:15:47;;;;;;;127.40;80.78;;;;;;;;;;6230606;28;20045;-77
2023/04/14 10:18:49;;;;;;;32.97;22.48;;;;;;;;;;6222101;28;20087;-77
2023/04/14 10:21:51;;;;;;;19.98;12.60;;;;;;;;;;6222397;28;21072;-78
2023/04/14 10:24:53;;;;;;;21.73;16.73;;;;;;;;;;6219987;28;20105;-75
2023/04/14 10:27:56;;;;;;;13.43;9.20;;;;;;;;;;6217642;28;20218;-76
2023/04/14 10:30:58;;;;;;;;;;;;;;;;;;6218372;28;20167;-77
2023/04/14 10:34:07;;;;;;;3.03;0.80;;;;;;;;;;6217300;28;19921;-75
2023/04/14 10:37:12;;;;;;;1.75;0.30;;;;;;;;;;6221350;28;20058;-75
2023/04/14 10:40:14;;;;;;;1.00;0.43;;;;;;;;;;6221001;28;20057;-76
2023/04/14 10:43:17;;;;;;;1.63;0.50;;;;;;;;;;6218518;28;20054;-75
2023/04/14 10:46:20;;;;;;;1.58;0.52;;;;;;;;;;6218423;28;20938;-76
2023/04/14 10:49:24;;;;;;;1.40;0.40;;;;;;;;;;6216773;28;20234;-73
2023/04/14 10:52:32;;;;;;;2.40;0.77;;;;;;;;;;6215172;28;20322;-75
2023/04/14 10:55:45;;;;;;;1.92;0.40;;;;;;;;;;6219837;28;20093;-75
2023/04/14 10:58:55;;;;;;;2.80;0.65;;;;;;;;;;6220149;28;20053;-74
2023/04/14 11:01:57;;;;;;;0.63;0.30;;;;;;;;;;6217534;28;20050;-75
2023/04/14 11:05:03;;;;;;;1.55;0.40;;;;;;;;;;6222198;28;20136;-74
2023/04/14 11:08:12;;;;;;;2.90;0.40;;;;;;;;;;6218106;28;20061;-73
2023/04/14 11:11:16;;;;;;;1.20;0.50;;;;;;;;;;6217145;28;20065;-75
2023/04/14 11:14:25;;;;;;;1.33;0.43;;;;;;;;;;6218052;28;20058;-74
2023/04/14 11:17:29;;;;;;;28.42;23.10;;;;;;;;;;6222672;28;20096;-75
2023/04/14 11:20:30;;;;;;;;;;;;;;;;;;6223074;28;20057;-75
2023/04/14 11:23:32;;;;;;;3.45;2.42;;;;;;;;;;6220711;28;19976;-75
2023/04/14 11:26:34;;;;;;;0.60;0.40;;;;;;;;;;6221325;28;20091;-74
2023/04/14 11:29:37;;;;;;;0.60;0.40;;;;;;;;;;6222858;28;20073;-74
2023/04/14 11:32:47;;;;;;;1.67;0.70;;;;;;;;;;6225010;28;20085;-74
2023/04/14 11:35:49;;;;;;;0.95;0.30;;;;;;;;;;6216657;28;20092;-74
2023/04/14 11:38:51;;;;;;;1.20;0.22;;;;;;;;;;6217011;28;20097;-75
2023/04/14 11:41:52;;;;;;;1.50;0.35;;;;;;;;;;6216831;28;20054;-74
2023/04/14 11:44:58;;;;;;;0.30;0.20;;;;;;;;;;6216531;28;20262;-75
2023/04/14 11:48:01;;;;;;;0.85;0.30;;;;;;;;;;6216169;28;20334;-74
2023/04/14 11:51:03;;;;;;;0.98;0.40;;;;;;;;;;6217656;28;20100;-75
2023/04/14 11:54:05;;;;;;;1.25;0.30;;;;;;;;;;6216527;28;20112;-75
2023/04/14 11:57:10;;;;;;;1.70;0.40;;;;;;;;;;6216871;28;20116;-75
2023/04/14 12:00:14;;;;;;;0.52;0.30;;;;;;;;;;6217516;28;20233;-75
2023/04/14 12:03:16;;;;;;;0.30;0.20;;;;;;;;;;6215180;28;20238;-75
2023/04/14 12:06:18;;;;;;;0.50;0.30;;;;;;;;;;6218671;28;20062;-75
2023/04/14 12:09:20;;;;;;;2.10;1.00;;;;;;;;;;6217796;28;20054;-75
2023/04/14 12:12:21;;;;;;;0.43;0.30;;;;;;;;;;6217229;28;20046;-76
2023/04/14 12:15:24;;;;;;;0.70;0.40;;;;;;;;;;6215644;28;20140;-76
2023/04/14 12:18:25;;;;;;;;;;;;;;;;;;6217851;28;20058;-75
2023/04/14 12:21:27;;;;;;;1.30;0.57;;;;;;;;;;6214937;28;20198;-77
2023/04/14 12:24:36;;;;;;;1.77;0.40;;;;;;;;;;6213196;28;20238;-76
2023/04/14 12:27:37;;;;;;;2.03;0.47;;;;;;;;;;6218051;28;20054;-75
2023/04/14 12:30:51;;;;;;;2.72;0.38;;;;;;;;;;6217803;28;20057;-75
2023/04/14 12:33:52;;;;;;;1.73;0.50;;;;;;;;;;6219759;28;20226;-75
2023/04/14 12:36:54;;;;;;;0.65;0.32;;;;;;;;;;6215341;28;20050;-76
2023/04/14 12:39:58;;;;;;;1.85;0.40;;;;;;;;;;6218480;28;20054;-76
2023/04/14 12:42:59;;;;;;;1.38;0.22;;;;;;;;;;6216275;28;20081;-74
2023/04/14 12:46:04;;;;;;;0.25;0.20;;;;;;;;;;6218569;28;20147;-76
2023/04/14 12:49:06;;;;;;;1.05;0.52;;;;;;;;;;6219279;28;20050;-74
2023/04/14 12:52:08;;;;;;;0.38;0.20;;;;;;;;;;6216004;28;20365;-75
2023/04/14 12:55:19;;;;;;;1.50;0.50;;;;;;;;;;6216665;28;20249;-74
2023/04/14 12:58:22;;;;;;;0.50;0.38;;;;;;;;;;6216235;28;20321;-75
2023/04/14 13:01:25;;;;;;;0.70;0.30;;;;;;;;;;6216972;28;20062;-75
2023/04/14 13:04:27;;;;;;;2.15;0.50;;;;;;;;;;6220018;28;20695;-75
2023/04/14 13:07:29;;;;;;;0.40;0.30;;;;;;;;;;6214124;28;20073;-75
2023/04/14 13:10:31;;;;;;;0.60;0.35;;;;;;;;;;6216744;28;20076;-75
2023/04/14 13:13:32;;;;;;;0.93;0.30;;;;;;;;;;6216932;28;20050;-76
2023/04/14 13:16:35;;;;;;;0.77;0.30;;;;;;;;;;6215125;28;20155;-75
2023/04/14 13:19:37;;;;;;;0.63;0.40;;;;;;;;;;6215079;28;20105;-77
2023/04/14 13:22:38;;;;;;;7.60;0.50;;;;;;;;;;6217970;28;20104;-75
2023/04/14 13:25:40;;;;;;;55.67;41.63;;;;;;;;;;6217721;28;20057;-75
2023/04/14 13:28:42;;;;;;;14.47;11.90;;;;;;;;;;6215849;28;20062;-77
2023/04/14 13:31:45;;;;;;;21.70;15.90;;;;;;;;;;6218598;28;20057;-75
2023/04/14 13:34:47;;;;;;;15.13;11.30;;;;;;;;;;6216224;28;20081;-77
2023/04/14 13:37:49;;;;;;;20.38;17.38;;;;;;;;;;6213238;28;20117;-77
2023/04/14 13:40:51;;;;;;;2.67;1.88;;;;;;;;;;6215227;28;20053;-77
2023/04/14 13:43:53;;;;;;;0.50;0.40;;;;;;;;;;6215527;28;20042;-77
2023/04/14 13:46:57;;;;;;;1.75;0.30;;;;;;;;;;6198415;28;20050;-77
2023/04/14 13:50:00;;;;;;;4.68;0.30;;;;;;;;;;6215097;28;20238;-77
2023/04/14 13:53:02;;;;;;;0.95;0.45;;;;;;;;;;6213400;28;20275;-77
2023/04/14 13:56:04;;;;;;;0.45;0.45;;;;;;;;;;6212631;28;20148;-77
2023/04/14 13:59:06;;;;;;;1.58;0.60;;;;;;;;;;6213495;28;20066;-78
2023/04/14 14:02:09;;;;;;;3.05;0.40;;;;;;;;;;6215531;28;20250;-76
2023/04/14 14:05:14;;;;;;;1.48;0.50;;;;;;;;;;6215149;28;20246;-77
2023/04/14 14:08:16;;;;;;;0.38;0.22;;;;;;;;;;6218862;28;20046;-77
2023/04/14 14:11:18;;;;;;;2.65;0.50;;;;;;;;;;6216496;28;20219;-76
2023/04/14 14:14:19;;;;;;;2.00;0.93;;;;;;;;;;6216508;28;20060;-76
2023/04/14 14:17:23;;;;;;;5.50;0.60;;;;;;;;;;6216867;28;20630;-77
2023/04/14 14:20:24;;;;;;;2.72;0.43;;;;;;;;;;6216664;28;20109;-76
2023/04/14 14:23:26;;;;;;;2.10;0.87;;;;;;;;;;6219656;28;20128;-76
2023/04/14 14:26:27;;;;;;;1.13;0.40;;;;;;;;;;6221887;28;20854;-76
2023/04/14 14:29:29;;;;;;;0.80;0.40;;;;;;;;;;6226848;28;20053;-76
2023/04/14 14:32:32;;;;;;;0.70;0.40;;;;;;;;;;6227152;28;20057;-76
2023/04/14 14:35:33;;;;;;;1.30;0.55;;;;;;;;;;6224772;28;20281;-76
2023/04/14 14:38:36;;;;;;;1.63;0.50;;;;;;;;;;6220105;28;20073;-76
2023/04/14 14:41:37;;;;;;;17.67;15.50;;;;;;;;;;6219389;28;20145;-78
2023/04/14 14:44:39;;;;;;;2.17;1.45;;;;;;;;;;6226200;28;20065;-77
2023/04/14 14:47:42;;;;;;;2.25;0.68;;;;;;;;;;6226386;28;20072;-77
2023/04/14 14:50:43;;;;;;;;;;;;;;;;;;6222844;28;20403;-76
2023/04/14 14:53:45;;;;;;;0.52;0.20;;;;;;;;;;6216166;28;19936;-77
2023/04/14 14:56:47;;;;;;;0.73;0.30;;;;;;;;;;6215712;28;20066;-76
2023/04/14 14:59:48;;;;;;;1.13;0.70;;;;;;;;;;6217361;28;20118;-77
2023/04/14 15:02:52;;;;;;;0.90;0.35;;;;;;;;;;6216421;28;20069;-77
2023/04/14 15:05:53;;;;;;;1.20;0.32;;;;;;;;;;6217481;28;20077;-76
2023/04/14 15:08:55;;;;;;;1.58;0.60;;;;;;;;;;6217039;28;20057;-76
2023/04/14 15:11:57;;;;;;;1.42;0.40;;;;;;;;;;6216645;28;20054;-76
2023/04/14 15:14:58;;;;;;;2.70;0.40;;;;;;;;;;6215147;28;20057;-77
2023/04/14 15:18:01;;;;;;;1.02;0.40;;;;;;;;;;6217277;28;20144;-77
2023/04/14 15:21:03;;;;;;;0.57;0.43;;;;;;;;;;6214477;28;20050;-77
2023/04/14 15:24:05;;;;;;;0.63;0.30;;;;;;;;;;6216427;28;20390;-77
2023/04/14 15:27:07;;;;;;;1.90;0.77;;;;;;;;;;6215782;28;20073;-77
2023/04/14 15:30:09;;;;;;;2.15;0.75;;;;;;;;;;6217706;28;20054;-77
2023/04/14 15:33:12;;;;;;;1.20;0.43;;;;;;;;;;6217961;28;20074;-77
2023/04/14 15:36:14;;;;;;;3.63;0.57;;;;;;;;;;6216597;28;20061;-77
2023/04/14 15:39:16;;;;;;;1.80;0.38;;;;;;;;;;6216834;28;20128;-77
2023/04/14 15:42:18;;;;;;;2.67;0.50;;;;;;;;;;6215574;28;20080;-77
2023/04/14 15:45:20;;;;;;;1.50;0.60;;;;;;;;;;6216535;28;20219;-78
2023/04/14 15:48:23;;;;;;;1.02;0.60;;;;;;;;;;6216581;28;20108;-77
2023/04/14 15:51:25;;;;;;;0.65;0.43;;;;;;;;;;6216158;28;20132;-78
2023/04/14 15:54:28;;;;;;;2.05;0.40;;;;;;;;;;6215058;28;20278;-78
2023/04/14 15:57:29;;;;;;;;;;;;;;;;;;6215467;28;20124;-77
2023/04/14 16:00:31;;;;;;;0.80;0.43;;;;;;;;;;6213789;28;19926;-77
2023/04/14 16:03:35;;;;;;;1.43;0.40;;;;;;;;;;6218801;28;20262;-77
2023/04/14 16:06:36;;;;;;;2.55;0.47;;;;;;;;;;6216592;28;20253;-77
2023/04/14 16:09:38;;;;;;;1.05;0.43;;;;;;;;;;6216817;28;20119;-77
2023/04/14 16:12:40;;;;;;;0.80;0.55;;;;;;;;;;6214291;28;20050;-77
2023/04/14 16:15:42;;;;;;;1.30;0.43;;;;;;;;;;6211825;28;20077;-77
2023/04/14 16:18:45;;;;;;;4.83;0.40;;;;;;;;;;6212682;28;20068;-77
2023/04/14 16:21:46;;;;;;;0.80;0.45;;;;;;;;;;6216080;28;20058;-77
2023/04/14 16:24:48;;;;;;;2.45;0.60;;;;;;;;;;6212086;28;20342;-75
2023/04/14 16:27:50;;;;;;;1.60;0.50;;;;;;;;;;6214547;28;20041;-75
2023/04/14 16:30:52;;;;;;;1.00;0.50;;;;;;;;;;6213767;28;20058;-76
2023/04/14 16:33:55;;;;;;;1.00;0.50;;;;;;;;;;6211864;28;20054;-76
2023/04/14 16:36:57;;;;;;;1.27;0.30;;;;;;;;;;6216504;28;20120;-75
2023/04/14 16:39:59;;;;;;;3.63;0.50;;;;;;;;;;6216745;28;20294;-76
2023/04/14 16:43:01;;;;;;;2.50;0.40;;;;;;;;;;6212353;28;20058;-76
2023/04/14 16:46:03;;;;;;;1.05;0.47;;;;;;;;;;6219581;28;20058;-76
2023/04/14 16:49:07;;;;;;;1.35;0.50;;;;;;;;;;6215564;28;20926;-76
2023/04/14 16:52:08;;;;;;;3.25;0.50;;;;;;;;;;6218779;28;20081;-75
2023/04/14 16:55:11;;;;;;;1.23;0.60;;;;;;;;;;6210670;28;20053;-76
2023/04/14 16:58:12;;;;;;;2.47;0.87;;;;;;;;;;6211775;28;20073;-77
2023/04/14 17:01:14;;;;;;;2.33;0.43;;;;;;;;;;6218892;28;20073;-76
2023/04/14 17:04:17;;;;;;;1.85;0.60;;;;;;;;;;6216042;28;20089;-77
2023/04/14 17:07:19;;;;;;;2.72;0.38;;;;;;;;;;6214293;28;20041;-77
2023/04/14 17:10:21;;;;;;;2.20;0.80;;;;;;;;;;6212604;28;20057;-76
2023/04/14 17:13:23;;;;;;;0.90;0.40;;;;;;;;;;6216929;28;20053;-76
2023/04/14 17:16:24;;;;;;;1.05;0.50;;;;;;;;;;6221796;28;20073;-77
2023/04/14 17:19:27;;;;;;;0.68;0.40;;;;;;;;;;6218960;28;20090;-76
2023/04/14 17:22:29;;;;;;;4.80;0.50;;;;;;;;;;6221816;28;20690;-77
2023/04/14 17:25:31;;;;;;;1.05;0.55;;;;;;;;;;6219629;28;20108;-76
2023/04/14 17:28:33;;;;;;;1.63;0.65;;;;;;;;;;6225378;28;20057;-75
2023/04/14 17:31:37;;;;;;;2.22;0.40;;;;;;;;;;6222432;28;20056;-77
2023/04/14 17:34:40;;;;;;;;;;;;;;;;;;6222928;28;20054;-76
2023/04/14 17:37:42;;;;;;;0.82;0.60;;;;;;;;;;6221573;28;19925;-78
2023/04/14 17:40:43;;;;;;;1.20;0.60;;;;;;;;;;6222725;28;20084;-79
2023/04/14 17:43:45;;;;;;;1.38;0.50;;;;;;;;;;6222069;28;20104;-75
2023/04/14 17:46:46;;;;;;;1.48;0.60;;;;;;;;;;6223716;28;20057;-79
2023/04/14 17:49:50;;;;;;;1.85;0.40;;;;;;;;;;6218907;28;20058;-76
2023/04/14 17:52:51;;;;;;;1.42;0.45;;;;;;;;;;6221110;28;20164;-77
2023/04/14 17:55:53;;;;;;;1.30;0.45;;;;;;;;;;6223808;28;20042;-77
2023/04/14 17:58:55;;;;;;;1.40;0.88;;;;;;;;;;6221635;28;20061;-74
2023/04/14 18:01:58;;;;;;;1.48;0.40;;;;;;;;;;6219437;28;20050;-74
2023/04/14 18:05:01;;;;;;;1.63;0.75;;;;;;;;;;6218252;28;20328;-75
2023/04/14 18:08:03;;;;;;;1.35;0.38;;;;;;;;;;6217411;28;20064;-74
2023/04/14 18:11:05;;;;;;;2.85;0.50;;;;;;;;;;6224823;28;20078;-76
2023/04/14 18:14:07;;;;;;;1.27;0.45;;;;;;;;;;6218485;28;20363;-80
2023/04/14 18:17:09;;;;;;;0.88;0.40;;;;;;;;;;6224047;28;20057;-78